Flight Track Log - Related Links

Times and Time Zones

All times are in EDT time to prevent confusion due to time zone crossing. See the EJA646 flight status page for this flight to view local times or setup timezone preferences in your user account.

Time Position Orientation Groundspeed Altitude Reporting Facility
EDT Latitude Longitude Course Direction KTS MPH feet Rate Location/Type
Thu 03:42:45 PM 25.7981 -80.2767 86° East 154 177 1,000  Level Miami Center
Thu 03:43:40 PM 25.8014 -80.2214 86° East 227 261 3,400 2,488 Climbing Miami Center
Thu 03:44:48 PM 25.8281 -80.1531 67° East 270 311 6,100 2,571 Climbing Miami Center
Thu 03:45:39 PM 25.8969 -80.1550 359° North 272 313 8,500 2,486 Climbing Miami Center
Thu 03:46:39 PM 25.9647 -80.2031 327° Northwest 272 313 10,700 2,050 Climbing Miami Center
Thu 03:47:39 PM 26.0303 -80.2603 322° Northwest 278 320 12,600 1,850 Climbing Miami Center
Thu 03:48:39 PM 26.1019 -80.3203 323° Northwest 304 350 14,400 1,750 Climbing Miami Center
Thu 03:49:39 PM 26.1736 -80.3800 323° Northwest 318 366 16,100 1,650 Climbing Miami Center
Thu 03:50:39 PM 26.2475 -80.4403 324° Northwest 318 366 17,700 1,550 Climbing Miami Center
Thu 03:51:39 PM 26.3361 -80.4822 337° Northwest 331 381 19,200 1,450 Climbing Miami Center
Thu 03:52:39 PM 26.4167 -80.5219 336° Northwest 346 398 20,600 1,550 Climbing Miami Center
Thu 03:53:39 PM 26.5158 -80.5667 338° Northwest 346 398 22,300 1,550 Climbing Miami Center
Thu 03:54:39 PM 26.6044 -80.6089 337° Northwest 351 404 23,700 1,500 Climbing Miami Center
Thu 03:55:39 PM 26.6931 -80.6536 336° Northwest 351 404 25,300 1,550 Climbing Miami Center
Thu 03:56:39 PM 26.7839 -80.6939 338° Northwest 353 406 26,800 1,500 Climbing Miami Center
Thu 03:57:39 PM 26.8769 -80.7294 341° North 353 406 28,300 1,500 Climbing Miami Center
Thu 03:58:39 PM 26.9681 -80.7606 343° North 348 400 29,800 1,400 Climbing Miami Center
Thu 03:59:39 PM 27.0656 -80.7822 349° North 343 395 31,100 1,250 Climbing Miami Center
Thu 04:00:39 PM 27.1611 -80.8019 350° North 343 395 32,300 1,200 Climbing Miami Center
Thu 04:01:39 PM 27.2567 -80.8239 348° North 349 402 33,500 1,100 Climbing Miami Center
Thu 04:02:39 PM 27.3500 -80.8411 351° North 344 396 34,500 750 Climbing Miami Center
Thu 04:03:39 PM 27.4456 -80.8583 351° North 349 402 35,000 250 Climbing Miami Center
Thu 04:04:39 PM 27.5450 -80.8831 348° North 349 402 35,000  Level Miami Center
Thu 04:06:00 PM 27.6616 -80.8971 349° North  Level FlightAware
Thu 04:06:39 PM 27.7464 -80.9253 349° North 359 413 35,000  Level Miami Center
Thu 04:07:39 PM 27.8419 -80.9450 350° North 359 413 36,500 1,300 Climbing Miami Center
Thu 04:08:39 PM 27.9350 -80.9672 348° North 345 397 37,600 1,050 Climbing Miami Center
Thu 04:09:39 PM 28.0264 -80.9847 350° North 339 390 38,600 700 Climbing Miami Center
Thu 04:10:39 PM 28.1156 -81.0067 348° North 332 382 39,000 200 Climbing Miami Center
Thu 04:11:39 PM 28.2131 -81.0292 349° North 337 388 39,000  Level Miami Center
Thu 04:13:15 PM 28.3686 -81.0619 349° North 351 404 39,000  Level Jacksonville Center
Thu 04:14:16 PM 28.4606 -81.0864 347° North 363 418 39,000  Level Jacksonville Center
Thu 04:15:15 PM 28.5592 -81.1128 347° North 368 423 39,000  Level Jacksonville Center
Thu 04:16:15 PM 28.6617 -81.1300 352° North 368 423 39,000  Level Jacksonville Center
Thu 04:17:15 PM 28.7622 -81.1567 347° North 368 423 39,000  Level Jacksonville Center
Thu 04:18:15 PM 28.8625 -81.1761 350° North 368 423 39,000  Level Jacksonville Center
Thu 04:19:15 PM 28.9653 -81.2006 348° North 373 429 39,000  Level Jacksonville Center
Thu 04:20:15 PM 29.0656 -81.2225 349° North 373 429 39,000  Level Jacksonville Center
Thu 04:21:15 PM 29.1683 -81.2444 349° North 373 429 39,000  Level Jacksonville Center
Thu 04:22:15 PM 29.2667 -81.2692 348° North 373 429 39,000  Level Jacksonville Center
Thu 04:23:15 PM 29.3692 -81.2889 350° North 373 429 39,000 -150 Level Jacksonville Center
Thu 04:24:15 PM 29.4697 -81.3133 348° North 373 429 38,700 -650 Descending Jacksonville Center
Thu 04:25:15 PM 29.5786 -81.3381 349° North 368 423 37,700 -843 Descending Jacksonville Center
Thu 04:26:16 PM 29.6728 -81.3581 350° North 373 429 37,000 -350 Descending Jacksonville Center
Thu 04:27:15 PM 29.7753 -81.3828 348° North 373 429 37,000 -400 Level Jacksonville Center
Thu 04:28:16 PM 29.8778 -81.4075 348° North 373 429 36,200 -992 Descending Jacksonville Center
Thu 04:29:16 PM 29.9783 -81.4275 350° North 373 429 35,000 -1,200 Descending Jacksonville Center
Thu 04:30:16 PM 30.0808 -81.4522 348° North 373 429 33,800 -1,008 Descending Jacksonville Center
Thu 04:31:15 PM 30.1878 -81.4747 350° North 373 429 33,000 -403 Descending Jacksonville Center
Thu 04:32:15 PM 30.2922 -81.4972 349° North 378 435 33,000  Level Jacksonville Center
Thu 04:33:15 PM 30.4031 -81.5053 356° North 383 441 33,000 -800 Level Jacksonville Center
Thu 04:34:15 PM 30.5136 -81.4964 North 388 447 31,400 -2,450 Descending Jacksonville Center
Thu 04:35:15 PM 30.6283 -81.4875 North 394 453 28,100 -2,975 Descending Jacksonville Center
Thu 04:36:16 PM 30.7453 -81.4786 North 406 467 25,400 -2,200 Descending Jacksonville Center
Thu 04:37:15 PM 30.8558 -81.4697 North 401 461 23,700 -1,513 Descending Jacksonville Center
Thu 04:38:15 PM 30.9622 -81.4631 North 395 455 22,400 -1,250 Descending Jacksonville Center
Thu 04:39:15 PM 31.0706 -81.4519 North 385 443 21,200 -694 Descending Jacksonville Center
Thu 04:40:16 PM 31.1747 -81.4258 12° North 385 443 21,000 -99 Descending Jacksonville Center
Thu 04:41:16 PM 31.2722 -81.3808 22° Northeast 375 432 21,000 -353 Level Jacksonville Center
Thu 04:42:15 PM 31.3742 -81.3497 15° North 375 432 20,300 -1,008 Descending Jacksonville Center
Thu 04:43:15 PM 31.4931 -81.3258 10° North 380 437 19,000 -1,190 Descending Jacksonville Center
Thu 04:44:16 PM 31.6011 -81.3047 North 390 449 17,900 -1,050 Descending Jacksonville Center
Thu 04:45:15 PM 31.6903 -81.2494 28° Northeast 384 442 16,900 -1,350 Descending Jacksonville Center
Thu 04:46:16 PM 31.7831 -81.1597 39° Northeast 397 457 15,200 -1,785 Descending Jacksonville Center
Thu 04:47:16 PM 31.8614 -81.0872 38° Northeast 368 423 13,300 -2,350 Descending Jacksonville Center
Thu 04:48:16 PM 31.9336 -81.0200 38° Northeast 335 386 10,500 -2,800 Descending Jacksonville Center
Thu 04:49:16 PM 31.9975 -80.9647 36° Northeast 298 343 7,700 -1,810 Descending Jacksonville Center
Thu 04:51:15 PM 32.0708 -80.8603 50° Northeast 204 235 5,100 -1,200 Descending Jacksonville Center
Thu 04:52:16 PM 32.1294 -80.8711 351° North 212 244 4,100 -793 Descending Jacksonville Center
Thu 04:53:16 PM 32.1347 -80.9322 276° West 171 197 3,500 -600 Descending Jacksonville Center
Thu 04:55:00 PM 32.1296 -81.1287 268° West  Level Estimated
Thu 05:02:00 PM 32.1276 -81.2021 268° West  Level Estimated
Thu 05:03:00 PM 32.1276 -81.2021 16° North  Level Estimated
Thu 05:04:00 PM 32.1276 -81.2021 16° North  Level Estimated
Thu 05:05:00 PM 32.1276 -81.2021 16° North  Level Estimated
Thu 05:06:00 PM 32.1276 -81.2021 16° North  Level Estimated

Login

Don't have an account? Register now (free) for customized features, flight alerts, and more!